Perham, MN

1:25 PM CDT on August 30, 2014 (GMT -0500)
Fergus Falls Municipal-Mickelson | Change Station
CLOSE
Current Station
Airport
Location: Fergus Falls,
Elevation: 1184 ft
Nearby Weather Stations

Elev 1184 ft 46.29 °N, 96.15 °W | Updated 11 minutes ago

Overcast
Overcast
64 °F
Feels Like 64 °F
N
5
Wind Variable Wind from WNW

Today
High -- | Low -- °F
--% Chance of Precip.
Yesterday
High -- | Low -- °F
Precip. -- in
6:39 AM 8:05 PM
Waxing Crescent, 23% visible
Pressure 29.89 in
Visibility 10.0 miles
Clouds Overcast 1300 ft
Dew Point 61 °F
Humidity 88%
Rainfall 0.00 in
Snow Depth Not available.
UV 2 out of 12
Pollen 9.90 out of 12
Air Quality Not available.
Flu Activity Not available.
METAR KFFM 301814Z AUTO 30004KT 10SM OVC013 18/16 A2989 RMK AO2

More Conditions Fewer Conditions

Pressure 29.89 in
Visibility 10.0 miles
Clouds Overcast 1300 ft
Dew Point 61 °F
Humidity 88%
Rainfall 0.00 in
Snow Depth Not available.
UV 2 out of 12
Pollen 9.90 out of 12
Air Quality Not available.
Flu Activity Not available.
METAR KFFM 301814Z AUTO 30004KT 10SM OVC013 18/16 A2989 RMK AO2

More Conditions Fewer Conditions

10-Day Weather Forecast

Almanac

Astronomy

Aug. 30, 2014 Rise Set
Actual Time 6:39 AM CDT 8:05 PM CDT
Civil Twilight 6:08 AM CDT 8:36 PM CDT
Nautical Twilight 5:30 AM CDT 9:14 PM CDT
Astronomical Twilight 4:49 AM CDT 9:55 PM CDT
Moon 11:47 AM CDT 10:19 PM CDT
Length of Visible Light 14h 28m
Length of Day
13h 25m
Tomorrow will be 3m 11s shorter.
Waxing Crescent, 23% of the Moon is Illuminated
Today
Waxing Crescent
Sep 2
First Quarter
Sep 8
Full
Sep 15
Last Quarter
Sep 24
New

Today's Extremes

State Highs State Lows

Community

WunderPhotos

Upload Photos

1,748,583 photos uploaded!

WunderBlogs® & News

Nearby

Snow Depth

Station Depth Elevation
No new snow has been reported.

Earthquake Activity

City Distance Mag. Time & Date
No recent earthquake activity has been reported nearby.
Minimum magnitude displayed is 2.5.

Coastal Water Temperatures

Place Temperature
No Stations Reporting

Nearby Weather Stations